sensor_id;sensor_type;location;lat;lon;timestamp;P1;durP1;ratioP1;P2;durP2;ratioP2
17261;SDS011;9873;52.236;21.002;2023-03-31T00:09:51;12.18;;;8.70;;
17261;SDS011;9873;52.236;21.002;2023-03-31T00:20:20;15.20;;;9.57;;
17261;SDS011;9873;52.236;21.002;2023-03-31T00:30:23;11.68;;;8.23;;
17261;SDS011;9873;52.236;21.002;2023-03-31T00:40:28;11.15;;;8.38;;
17261;SDS011;9873;52.236;21.002;2023-03-31T00:50:34;12.07;;;8.50;;
17261;SDS011;9873;52.236;21.002;2023-03-31T01:00:42;13.10;;;8.93;;
17261;SDS011;9873;52.236;21.002;2023-03-31T01:10:53;13.52;;;8.38;;
17261;SDS011;9873;52.236;21.002;2023-03-31T01:42:07;14.05;;;8.52;;
17261;SDS011;9873;52.236;21.002;2023-03-31T02:02:34;11.73;;;8.48;;
17261;SDS011;9873;52.236;21.002;2023-03-31T02:12:39;10.32;;;7.95;;
17261;SDS011;9873;52.236;21.002;2023-03-31T02:22:51;14.07;;;8.95;;
17261;SDS011;9873;52.236;21.002;2023-03-31T02:32:55;11.70;;;8.15;;
17261;SDS011;9873;52.236;21.002;2023-03-31T02:42:59;10.60;;;8.65;;
17261;SDS011;9873;52.236;21.002;2023-03-31T03:13:50;10.18;;;7.90;;
17261;SDS011;9873;52.236;21.002;2023-03-31T03:23:55;13.30;;;9.20;;
17261;SDS011;9873;52.236;21.002;2023-03-31T03:34:00;13.53;;;8.83;;
17261;SDS011;9873;52.236;21.002;2023-03-31T03:44:03;13.23;;;8.98;;
17261;SDS011;9873;52.236;21.002;2023-03-31T03:54:05;13.55;;;8.70;;
17261;SDS011;9873;52.236;21.002;2023-03-31T04:04:12;12.60;;;9.48;;
17261;SDS011;9873;52.236;21.002;2023-03-31T04:14:17;15.43;;;9.77;;
17261;SDS011;9873;52.236;21.002;2023-03-31T04:24:20;14.60;;;9.32;;
17261;SDS011;9873;52.236;21.002;2023-03-31T04:34:25;14.95;;;10.40;;
17261;SDS011;9873;52.236;21.002;2023-03-31T04:44:36;14.57;;;9.98;;
17261;SDS011;9873;52.236;21.002;2023-03-31T04:54:41;18.55;;;10.88;;
17261;SDS011;9873;52.236;21.002;2023-03-31T05:04:45;14.93;;;10.60;;
17261;SDS011;9873;52.236;21.002;2023-03-31T05:14:47;16.05;;;11.18;;
17261;SDS011;9873;52.236;21.002;2023-03-31T05:24:52;17.50;;;9.98;;
17261;SDS011;9873;52.236;21.002;2023-03-31T05:34:54;22.53;;;15.60;;
17261;SDS011;9873;52.236;21.002;2023-03-31T05:44:58;15.20;;;11.02;;
17261;SDS011;9873;52.236;21.002;2023-03-31T05:55:10;15.85;;;10.90;;
17261;SDS011;9873;52.236;21.002;2023-03-31T06:05:12;21.33;;;11.68;;
17261;SDS011;9873;52.236;21.002;2023-03-31T06:15:17;19.15;;;11.82;;
17261;SDS011;9873;52.236;21.002;2023-03-31T06:25:31;14.18;;;10.65;;
17261;SDS011;9873;52.236;21.002;2023-03-31T06:35:57;16.38;;;11.35;;
17261;SDS011;9873;52.236;21.002;2023-03-31T06:46:02;16.17;;;10.98;;
17261;SDS011;9873;52.236;21.002;2023-03-31T06:56:06;16.50;;;11.02;;
17261;SDS011;9873;52.236;21.002;2023-03-31T07:06:14;14.43;;;11.15;;
17261;SDS011;9873;52.236;21.002;2023-03-31T07:16:23;17.13;;;11.40;;
17261;SDS011;9873;52.236;21.002;2023-03-31T07:26:26;18.20;;;12.13;;
17261;SDS011;9873;52.236;21.002;2023-03-31T07:36:36;18.35;;;11.77;;
17261;SDS011;9873;52.236;21.002;2023-03-31T07:46:41;21.38;;;12.75;;
17261;SDS011;9873;52.236;21.002;2023-03-31T07:56:48;19.25;;;13.52;;
17261;SDS011;9873;52.236;21.002;2023-03-31T08:06:58;17.92;;;11.75;;
17261;SDS011;9873;52.236;21.002;2023-03-31T08:17:04;14.38;;;10.55;;
17261;SDS011;9873;52.236;21.002;2023-03-31T08:27:11;12.35;;;8.90;;
17261;SDS011;9873;52.236;21.002;2023-03-31T08:37:16;17.65;;;10.77;;
17261;SDS011;9873;52.236;21.002;2023-03-31T08:47:19;12.18;;;8.90;;
17261;SDS011;9873;52.236;21.002;2023-03-31T08:57:25;13.07;;;9.23;;
17261;SDS011;9873;52.236;21.002;2023-03-31T09:17:45;11.15;;;7.20;;
17261;SDS011;9873;52.236;21.002;2023-03-31T09:27:54;11.38;;;6.95;;
17261;SDS011;9873;52.236;21.002;2023-03-31T09:37:59;8.13;;;5.85;;
17261;SDS011;9873;52.236;21.002;2023-03-31T09:48:15;8.50;;;6.05;;
17261;SDS011;9873;52.236;21.002;2023-03-31T09:58:21;10.65;;;5.80;;
17261;SDS011;9873;52.236;21.002;2023-03-31T10:08:39;8.27;;;6.13;;
17261;SDS011;9873;52.236;21.002;2023-03-31T10:18:46;10.68;;;5.07;;
17261;SDS011;9873;52.236;21.002;2023-03-31T10:28:55;9.00;;;3.97;;
17261;SDS011;9873;52.236;21.002;2023-03-31T10:39:05;11.73;;;4.05;;
17261;SDS011;9873;52.236;21.002;2023-03-31T11:41:18;6.18;;;3.70;;
17261;SDS011;9873;52.236;21.002;2023-03-31T11:51:24;6.03;;;3.75;;
17261;SDS011;9873;52.236;21.002;2023-03-31T12:01:37;7.80;;;3.35;;
17261;SDS011;9873;52.236;21.002;2023-03-31T12:11:45;9.93;;;3.95;;
17261;SDS011;9873;52.236;21.002;2023-03-31T12:22:01;7.65;;;3.33;;
17261;SDS011;9873;52.236;21.002;2023-03-31T12:32:18;7.18;;;3.25;;
17261;SDS011;9873;52.236;21.002;2023-03-31T13:03:39;8.43;;;3.13;;
17261;SDS011;9873;52.236;21.002;2023-03-31T13:14:30;7.53;;;3.80;;
17261;SDS011;9873;52.236;21.002;2023-03-31T13:24:20;7.60;;;3.17;;
17261;SDS011;9873;52.236;21.002;2023-03-31T13:34:31;6.43;;;3.50;;
17261;SDS011;9873;52.236;21.002;2023-03-31T13:45:46;6.90;;;3.20;;
17261;SDS011;9873;52.236;21.002;2023-03-31T14:16:20;6.53;;;2.80;;
17261;SDS011;9873;52.236;21.002;2023-03-31T14:36:58;3.70;;;2.78;;
17261;SDS011;9873;52.236;21.002;2023-03-31T14:47:10;4.60;;;2.60;;
17261;SDS011;9873;52.236;21.002;2023-03-31T14:57:22;5.97;;;3.25;;
17261;SDS011;9873;52.236;21.002;2023-03-31T15:07:31;5.00;;;2.88;;
17261;SDS011;9873;52.236;21.002;2023-03-31T15:17:48;9.13;;;3.13;;
17261;SDS011;9873;52.236;21.002;2023-03-31T15:27:56;7.22;;;2.90;;
17261;SDS011;9873;52.236;21.002;2023-03-31T15:38:04;2.72;;;2.22;;
17261;SDS011;9873;52.236;21.002;2023-03-31T15:48:55;3.15;;;2.35;;
17261;SDS011;9873;52.236;21.002;2023-03-31T15:58:45;2.95;;;1.88;;
17261;SDS011;9873;52.236;21.002;2023-03-31T16:09:01;3.15;;;2.13;;
17261;SDS011;9873;52.236;21.002;2023-03-31T16:19:14;4.40;;;1.83;;
17261;SDS011;9873;52.236;21.002;2023-03-31T16:29:22;5.72;;;2.10;;
17261;SDS011;9873;52.236;21.002;2023-03-31T16:39:29;2.08;;;1.88;;
17261;SDS011;9873;52.236;21.002;2023-03-31T16:49:34;2.30;;;1.90;;
17261;SDS011;9873;52.236;21.002;2023-03-31T16:59:41;4.80;;;1.80;;
17261;SDS011;9873;52.236;21.002;2023-03-31T17:09:54;2.05;;;1.80;;
17261;SDS011;9873;52.236;21.002;2023-03-31T17:19:58;2.63;;;2.08;;
17261;SDS011;9873;52.236;21.002;2023-03-31T17:30:00;1.63;;;1.48;;
17261;SDS011;9873;52.236;21.002;2023-03-31T17:40:03;1.55;;;1.42;;
17261;SDS011;9873;52.236;21.002;2023-03-31T17:50:08;6.57;;;3.10;;
17261;SDS011;9873;52.236;21.002;2023-03-31T18:00:14;6.55;;;4.82;;
17261;SDS011;9873;52.236;21.002;2023-03-31T18:10:19;7.85;;;5.03;;
17261;SDS011;9873;52.236;21.002;2023-03-31T18:20:23;9.10;;;5.93;;
17261;SDS011;9873;52.236;21.002;2023-03-31T18:30:29;7.28;;;5.93;;
17261;SDS011;9873;52.236;21.002;2023-03-31T18:40:34;7.18;;;5.70;;
17261;SDS011;9873;52.236;21.002;2023-03-31T18:50:37;7.35;;;5.10;;
17261;SDS011;9873;52.236;21.002;2023-03-31T19:00:43;7.70;;;4.60;;
17261;SDS011;9873;52.236;21.002;2023-03-31T19:10:51;7.25;;;3.88;;
17261;SDS011;9873;52.236;21.002;2023-03-31T19:21:18;5.50;;;3.83;;
17261;SDS011;9873;52.236;21.002;2023-03-31T19:31:25;5.82;;;3.90;;
17261;SDS011;9873;52.236;21.002;2023-03-31T19:41:27;8.15;;;4.57;;
17261;SDS011;9873;52.236;21.002;2023-03-31T19:51:30;9.27;;;6.07;;
17261;SDS011;9873;52.236;21.002;2023-03-31T20:01:33;8.33;;;5.30;;
17261;SDS011;9873;52.236;21.002;2023-03-31T20:11:40;9.75;;;6.40;;
17261;SDS011;9873;52.236;21.002;2023-03-31T20:21:50;11.63;;;7.30;;
17261;SDS011;9873;52.236;21.002;2023-03-31T20:32:03;15.15;;;9.23;;
17261;SDS011;9873;52.236;21.002;2023-03-31T20:42:09;12.45;;;9.00;;
17261;SDS011;9873;52.236;21.002;2023-03-31T20:52:19;13.30;;;8.95;;
17261;SDS011;9873;52.236;21.002;2023-03-31T21:02:32;11.85;;;8.32;;
17261;SDS011;9873;52.236;21.002;2023-03-31T21:12:35;12.23;;;8.57;;
17261;SDS011;9873;52.236;21.002;2023-03-31T21:22:41;12.68;;;8.23;;
17261;SDS011;9873;52.236;21.002;2023-03-31T21:32:49;10.23;;;7.65;;
17261;SDS011;9873;52.236;21.002;2023-03-31T21:42:54;14.13;;;9.98;;
17261;SDS011;9873;52.236;21.002;2023-03-31T21:52:59;13.13;;;10.07;;
17261;SDS011;9873;52.236;21.002;2023-03-31T22:03:03;15.33;;;10.10;;
17261;SDS011;9873;52.236;21.002;2023-03-31T22:13:26;13.82;;;10.13;;
17261;SDS011;9873;52.236;21.002;2023-03-31T22:23:29;11.35;;;7.90;;
17261;SDS011;9873;52.236;21.002;2023-03-31T22:33:35;12.93;;;9.17;;
17261;SDS011;9873;52.236;21.002;2023-03-31T22:43:38;15.50;;;10.60;;
17261;SDS011;9873;52.236;21.002;2023-03-31T22:53:40;16.23;;;10.40;;
17261;SDS011;9873;52.236;21.002;2023-03-31T23:03:47;21.50;;;17.50;;
17261;SDS011;9873;52.236;21.002;2023-03-31T23:13:50;18.02;;;11.52;;
17261;SDS011;9873;52.236;21.002;2023-03-31T23:24:01;19.77;;;12.82;;
17261;SDS011;9873;52.236;21.002;2023-03-31T23:34:06;21.38;;;13.07;;
17261;SDS011;9873;52.236;21.002;2023-03-31T23:44:13;21.10;;;14.23;;
17261;SDS011;9873;52.236;21.002;2023-03-31T23:54:15;21.75;;;13.15;;
